Time;durP1;ratioP1;P1;durP2;ratioP2;P2;SDS_P1;SDS_P2;PMS_P1;PMS_P2;Temp;Humidity;BMP_temperature;BMP_pressure;BME280_temperature;BME280_humidity;BME280_pressure;Samples;Min_cycle;Max_cycle;Signal;HPM_P1;HPM_P2
2021/07/11 00:00:37;;;;;;;16.93;8.70;;;;;;;21.06;72.24;100023.14;1779412;80;21972;-78
2021/07/11 00:03:43;;;;;;;14.95;8.83;;;;;;;21.04;72.36;100020.63;1777945;80;21164;-78
2021/07/11 00:06:49;;;;;;;20.57;9.08;;;;;;;21.04;72.38;100022.56;1778122;80;21291;-78
2021/07/11 00:09:55;;;;;;;23.45;8.05;;;;;;;21.02;72.34;100021.41;1778847;80;21326;-79
2021/07/11 00:13:00;;;;;;;12.47;7.72;;;;;;;21.01;72.37;100021.12;1778065;80;21219;-78
2021/07/11 00:16:06;;;;;;;11.22;7.40;;;;;;;20.99;72.42;100016.37;1778414;80;21331;-78
2021/07/11 00:19:12;;;;;;;13.50;7.15;;;;;;;20.99;72.40;100017.76;1777854;80;21189;-78
2021/07/11 00:22:18;;;;;;;19.85;7.95;;;;;;;20.98;72.32;100018.83;1777946;80;21708;-78
2021/07/11 00:25:24;;;;;;;16.23;7.87;;;;;;;20.96;72.16;100011.85;1778342;80;21255;-78
2021/07/11 00:28:30;;;;;;;25.95;7.25;;;;;;;20.97;72.07;100011.59;1779436;80;21180;-78
2021/07/11 00:31:36;;;;;;;15.18;6.90;;;;;;;20.99;71.97;100006.64;1776813;80;21335;-78
2021/07/11 00:34:44;;;;;;;8.98;6.87;;;;;;;20.99;71.90;100009.97;1771178;81;21302;-78
2021/07/11 00:37:51;;;;;;;12.78;8.13;;;;;;;20.99;71.73;100005.80;1771245;81;21310;-78
2021/07/11 00:40:57;;;;;;;13.38;7.10;;;;;;;21.00;71.61;99999.14;1769880;81;21350;-78
2021/07/11 00:44:02;;;;;;;18.00;7.67;;;;;;;20.99;71.39;99999.69;1750569;81;21767;-79
2021/07/11 00:47:10;;;;;;;16.37;7.10;;;;;;;21.00;71.21;99999.14;1771189;81;21311;-78
2021/07/11 00:50:22;;;;;;;14.40;6.83;;;;;;;20.99;71.05;99992.73;1771280;81;21315;-78
2021/07/11 00:53:29;;;;;;;10.78;6.72;;;;;;;20.98;70.92;99993.80;1771331;81;21192;-78
2021/07/11 00:56:35;;;;;;;16.17;7.10;;;;;;;21.01;70.82;99989.70;1770129;81;21275;-78
2021/07/11 00:59:43;;;;;;;16.52;6.85;;;;;;;21.00;70.74;99993.02;1771305;81;21363;-78
2021/07/11 01:03:04;;;;;;;16.77;6.95;;;;;;;21.00;70.67;99987.47;1772154;81;21299;-78
2021/07/11 01:06:12;;;;;;;11.75;6.47;;;;;;;20.98;70.62;99984.08;1757020;81;21192;-78
2021/07/11 01:09:22;;;;;;;12.23;7.37;;;;;;;20.95;70.68;99988.77;1771558;81;21299;-78
2021/07/11 01:12:35;;;;;;;10.88;6.65;;;;;;;20.93;70.71;99990.95;1772122;81;21197;-78
2021/07/11 01:15:41;;;;;;;11.50;7.47;;;;;;;20.91;70.68;99995.38;1770865;81;21331;-78
2021/07/11 01:18:47;;;;;;;13.50;7.47;;;;;;;20.89;70.65;99994.80;1772148;81;21264;-78
2021/07/11 01:21:54;;;;;;;10.53;6.75;;;;;;;20.85;70.71;99995.55;1770639;81;21156;-78
2021/07/11 01:25:18;;;;;;;9.80;6.25;;;;;;;20.80;70.82;100003.80;1771129;81;22085;-79
2021/07/11 01:28:29;;;;;;;20.10;6.42;;;;;;;20.76;70.91;100001.23;1771328;81;21342;-78
2021/07/11 01:31:36;;;;;;;13.00;6.78;;;;;;;20.72;70.95;100002.81;1770908;81;21743;-78
2021/07/11 01:34:42;;;;;;;15.43;6.95;;;;;;;20.70;70.91;100003.59;1776215;80;21326;-78
2021/07/11 01:37:47;;;;;;;10.30;6.80;;;;;;;20.67;70.82;100000.23;1779263;80;21363;-79
2021/07/11 01:40:55;;;;;;;10.48;6.10;;;;;;;20.68;70.74;99997.75;1778711;80;21338;-78
2021/07/11 01:44:02;;;;;;;13.40;6.20;;;;;;;20.70;70.70;99997.48;1779448;80;21906;-79
2021/07/11 01:47:09;;;;;;;12.58;6.50;;;;;;;20.68;70.67;99999.14;1778421;80;21370;-79
2021/07/11 01:50:16;;;;;;;14.93;6.28;;;;;;;20.68;70.67;100001.08;1777879;80;21188;-79
2021/07/11 01:53:21;;;;;;;18.02;7.65;;;;;;;20.67;70.66;100002.17;1775894;80;21910;-79
2021/07/11 01:56:28;;;;;;;15.00;6.28;;;;;;;20.65;70.63;99994.10;1778228;80;21751;-79
2021/07/11 01:59:35;;;;;;;12.55;6.60;;;;;;;20.66;70.61;99994.94;1779408;80;21331;-79
2021/07/11 02:02:55;;;;;;;10.98;6.30;;;;;;;20.67;70.68;99998.84;1776690;80;21819;-79
2021/07/11 02:06:04;;;;;;;14.95;7.00;;;;;;;20.68;70.72;99996.36;1777930;80;21720;-79
2021/07/11 02:09:15;;;;;;;9.63;6.78;;;;;;;20.70;70.72;99998.88;1779278;80;21560;-79
2021/07/11 02:12:23;;;;;;;16.40;6.85;;;;;;;20.73;70.71;100001.16;1777817;80;21767;-79
2021/07/11 02:15:31;;;;;;;13.10;6.60;;;;;;;20.76;70.60;100001.23;1779508;80;22422;-77
2021/07/11 02:18:37;;;;;;;10.68;6.37;;;;;;;20.80;70.53;100001.02;1779436;80;21342;-79
2021/07/11 02:21:46;;;;;;;14.60;6.40;;;;;;;20.91;70.35;99991.75;1749274;80;21196;-79
2021/07/11 02:24:52;;;;;;;13.25;6.65;;;;;;;21.11;69.94;99993.48;1779427;80;21827;-79
2021/07/11 02:27:58;;;;;;;15.28;6.67;;;;;;;21.39;69.18;99993.95;1778427;80;21327;-79
2021/07/11 02:31:11;;;;;;;11.08;6.67;;;;;;;21.73;68.24;100001.38;1779568;80;21192;-78
2021/07/11 02:34:14;;;;;;;11.12;6.50;;;;;;;22.08;67.13;99997.69;1777499;80;21231;-79
2021/07/11 02:37:24;;;;;;;18.70;6.53;;;;;;;22.45;65.83;100006.23;1778306;80;21224;-79
2021/07/11 02:40:29;;;;;;;11.53;7.25;;;;;;;22.81;64.54;100005.74;1750657;80;21341;-79
2021/07/11 02:43:35;;;;;;;15.23;6.35;;;;;;;23.12;63.39;100003.55;1779715;80;21628;-79
2021/07/11 02:46:50;;;;;;;13.05;5.92;;;;;;;23.43;62.52;100008.83;1780463;80;21226;-79
2021/07/11 02:50:00;;;;;;;12.73;5.90;;;;;;;23.70;61.63;100009.29;1779946;80;21303;-79
2021/07/11 02:53:07;;;;;;;11.93;6.05;;;;;;;23.94;60.89;100011.09;1749505;80;21251;-79
2021/07/11 02:56:15;;;;;;;11.63;6.35;;;;;;;24.22;59.99;100010.66;1777250;80;21318;-80
2021/07/11 02:59:22;;;;;;;16.52;6.17;;;;;;;24.46;59.31;100007.41;1779416;80;21181;-79
2021/07/11 03:02:28;;;;;;;10.65;7.03;;;;;;;24.69;58.52;100004.11;1779676;80;22531;-79
2021/07/11 03:05:33;;;;;;;12.60;6.03;;;;;;;24.97;57.80;100006.09;1779409;80;21349;-79
2021/07/11 03:08:38;;;;;;;14.53;6.17;;;;;;;25.25;56.93;100003.34;1779732;80;21304;-79
2021/07/11 03:11:48;;;;;;;9.23;5.92;;;;;;;25.54;56.22;100004.14;1757366;80;21176;-79
2021/07/11 03:14:57;;;;;;;12.37;6.53;;;;;;;25.73;55.47;100006.61;1751207;80;21850;-79
2021/07/11 03:18:02;;;;;;;9.13;5.10;;;;;;;25.80;55.33;100004.97;1780425;80;21703;-79
2021/07/11 03:21:13;;;;;;;13.45;7.25;;;;;;;25.82;55.17;100002.70;1779764;80;21296;-80
2021/07/11 03:24:20;;;;;;;10.23;6.08;;;;;;;25.80;55.15;100003.00;1777814;80;21239;-79
2021/07/11 03:27:28;;;;;;;10.55;6.03;;;;;;;25.75;55.31;100007.19;1777843;80;21196;-79
2021/07/11 03:30:36;;;;;;;14.35;6.50;;;;;;;25.76;55.65;100003.85;1779348;80;21814;-79
2021/07/11 03:33:39;;;;;;;13.13;6.20;;;;;;;25.77;55.75;100000.76;1779438;80;21287;-79
2021/07/11 03:36:45;;;;;;;12.07;6.03;;;;;;;25.80;55.79;99998.80;1774435;80;21330;-79
2021/07/11 03:39:55;;;;;;;8.88;6.10;;;;;;;25.85;55.93;100000.19;1781582;80;21358;-79
2021/07/11 03:43:02;;;;;;;12.10;6.83;;;;;;;25.91;56.09;99997.63;1780859;80;21901;-80
2021/07/11 03:46:09;;;;;;;15.35;5.80;;;;;;;26.07;55.97;100000.41;1781552;80;21795;-79
2021/07/11 03:49:17;;;;;;;10.08;6.22;;;;;;;26.21;55.36;99999.49;1780369;80;21192;-79
2021/07/11 03:52:26;;;;;;;10.82;6.45;;;;;;;26.37;54.96;99995.20;1781450;80;22008;-79
2021/07/11 03:55:31;;;;;;;13.00;6.85;;;;;;;26.48;54.84;99992.64;1781547;80;21719;-79
2021/07/11 03:58:38;;;;;;;15.95;6.70;;;;;;;26.56;54.64;99996.24;1780424;80;21378;-79
2021/07/11 04:01:44;;;;;;;13.85;6.22;;;;;;;26.56;54.55;99992.03;1781538;80;21322;-79
2021/07/11 04:04:50;;;;;;;13.58;6.85;;;;;;;26.56;55.01;99989.23;1780123;80;21192;-79
2021/07/11 04:07:58;;;;;;;11.83;6.90;;;;;;;26.66;55.11;99991.97;1781523;80;21338;-79
2021/07/11 04:11:07;;;;;;;11.33;6.80;;;;;;;26.73;54.86;99991.09;1782589;80;21279;-79
2021/07/11 04:14:13;;;;;;;12.73;6.17;;;;;;;26.80;54.50;99984.30;1780404;80;21397;-79
2021/07/11 04:17:21;;;;;;;17.00;7.83;;;;;;;26.72;53.74;99989.42;1781524;80;21292;-79
2021/07/11 04:20:29;;;;;;;8.18;6.00;;;;;;;26.65;54.33;99986.66;1781512;80;21334;-79
2021/07/11 04:23:39;;;;;;;13.28;6.35;;;;;;;26.60;54.33;99988.09;1780064;80;21298;-79
2021/07/11 04:26:44;;;;;;;11.53;7.05;;;;;;;26.54;54.83;99987.83;1781728;80;21341;-79
2021/07/11 04:29:50;;;;;;;12.10;6.22;;;;;;;26.59;55.00;99982.22;1780353;80;21365;-78
2021/07/11 04:32:55;;;;;;;13.18;6.87;;;;;;;26.68;54.69;99979.91;1781464;80;21338;-79
2021/07/11 04:36:01;;;;;;;6.85;5.90;;;;;;;26.78;55.06;99979.56;1776833;80;21221;-79
2021/07/11 04:39:06;;;;;;;10.85;6.25;;;;;;;26.80;53.60;99976.72;1770594;81;21902;-79
2021/07/11 04:42:12;;;;;;;12.58;7.35;;;;;;;26.78;54.50;99980.40;1771089;81;21185;-79
2021/07/11 04:45:19;;;;;;;16.67;6.70;;;;;;;26.85;54.84;99978.66;1771170;81;21353;-79
2021/07/11 04:48:25;;;;;;;12.98;6.62;;;;;;;26.93;54.36;99978.87;1771206;81;21326;-79
2021/07/11 04:51:23;;;;;;;15.43;6.03;;;;;;;27.05;54.55;99969.22;1771680;81;21217;-78
2021/07/11 04:54:28;;;;;;;9.85;5.78;;;;;;;27.18;53.66;99977.84;1769751;81;21188;-79
2021/07/11 04:57:34;;;;;;;12.50;5.35;;;;;;;27.28;53.22;99976.07;1769721;81;21303;-78
2021/07/11 05:00:39;;;;;;;15.08;6.25;;;;;;;27.34;53.04;99984.73;1769657;81;21358;-78
2021/07/11 05:03:44;;;;;;;14.18;5.58;;;;;;;27.41;52.59;99984.64;1772115;81;21752;-79
2021/07/11 05:06:51;;;;;;;13.35;5.53;;;;;;;27.48;52.81;99973.08;1771760;81;21287;-79
2021/07/11 05:09:57;;;;;;;9.78;5.70;;;;;;;27.57;52.35;99978.86;1770300;81;21185;-78
2021/07/11 05:13:03;;;;;;;12.20;5.78;;;;;;;27.67;52.58;99980.19;1769675;81;21763;-78
2021/07/11 05:16:09;;;;;;;9.48;5.60;;;;;;;27.79;51.78;99979.79;1769650;81;21240;-79
2021/07/11 05:19:15;;;;;;;10.35;6.00;;;;;;;27.88;51.66;99983.62;1770835;81;21224;-79
2021/07/11 05:22:20;;;;;;;17.12;5.65;;;;;;;27.94;52.10;99982.41;1771059;81;21580;-79
2021/07/11 05:25:32;;;;;;;9.85;5.35;;;;;;;27.96;50.28;99978.18;1771073;81;21288;-79
2021/07/11 05:28:35;;;;;;;8.65;5.00;;;;;;;27.96;50.48;99985.78;1771037;81;21779;-79
2021/07/11 05:31:40;;;;;;;7.75;5.42;;;;;;;28.01;49.76;99985.14;1769724;81;21299;-79
2021/07/11 05:34:46;;;;;;;8.78;5.53;;;;;;;28.07;48.81;99990.12;1771137;81;21863;-79
2021/07/11 05:37:52;;;;;;;7.53;5.17;;;;;;;28.18;50.39;99988.01;1773064;80;21327;-79
2021/07/11 05:40:57;;;;;;;8.05;5.03;;;;;;;28.35;47.53;99988.95;1778098;80;21327;-79
2021/07/11 05:44:02;;;;;;;13.55;5.22;;;;;;;28.35;47.53;99988.95;1779177;80;21374;-79
2021/07/11 05:47:09;;;;;;;11.63;5.20;;;;;;;28.39;48.43;99988.63;1777710;80;21196;-79
2021/07/11 05:50:15;;;;;;;8.18;5.37;;;;;;;28.57;48.37;99982.75;1778737;80;21216;-79
2021/07/11 05:53:20;;;;;;;11.50;4.62;;;;;;;28.74;48.43;99985.27;1779377;80;21232;-79
2021/07/11 05:56:25;;;;;;;15.28;5.67;;;;;;;28.91;48.24;99996.00;1779390;80;21299;-79
2021/07/11 05:59:31;;;;;;;8.55;4.08;;;;;;;28.98;46.78;99990.86;1779243;80;21204;-79
2021/07/11 06:02:38;;;;;;;11.28;4.62;;;;;;;29.05;47.04;99986.81;1777876;80;22534;-79
2021/07/11 06:05:44;;;;;;;9.38;4.70;;;;;;;29.11;45.87;99980.77;1777915;80;21830;-78
2021/07/11 06:08:48;;;;;;;4.78;4.10;;;;;;;29.34;45.26;99984.60;1779354;80;21307;-79
2021/07/11 06:11:54;;;;;;;8.43;4.00;;;;;;;29.34;45.26;99984.60;1778741;80;21228;-79
2021/07/11 06:15:02;;;;;;;9.70;4.33;;;;;;;29.36;44.32;99975.83;1779263;80;21220;-79
2021/07/11 06:18:07;;;;;;;6.65;4.25;;;;;;;29.50;43.56;99980.92;1779255;80;21874;-79
2021/07/11 06:21:12;;;;;;;7.85;4.70;;;;;;;29.45;43.73;99973.98;1778435;80;21327;-79
2021/07/11 06:24:20;;;;;;;7.97;4.08;;;;;;;29.45;43.73;99973.98;1779438;80;21831;-79
2021/07/11 06:27:26;;;;;;;6.20;4.30;;;;;;;29.48;44.75;99967.73;1779325;80;21310;-79
2021/07/11 06:30:31;;;;;;;9.65;4.50;;;;;;;29.53;44.19;99976.08;1778814;80;21212;-79
2021/07/11 06:33:37;;;;;;;7.28;3.83;;;;;;;29.60;43.54;99974.32;1779392;80;21779;-79
2021/07/11 06:36:42;;;;;;;12.90;5.70;;;;;;;29.71;41.70;99968.16;1779410;80;21291;-79
2021/07/11 06:39:50;;;;;;;13.32;4.78;;;;;;;29.70;43.40;99964.25;1765296;80;21228;-79
2021/07/11 06:42:57;;;;;;;10.20;3.98;;;;;;;29.70;43.40;99964.25;1762750;81;21284;-79
2021/07/11 06:46:03;;;;;;;5.53;4.05;;;;;;;29.79;42.98;99960.39;1763379;81;21220;-78
2021/07/11 06:49:08;;;;;;;10.23;4.20;;;;;;;29.95;44.12;99960.08;1764474;81;21910;-79
2021/07/11 06:52:14;;;;;;;9.00;4.65;;;;;;;30.15;42.94;99961.66;1762701;81;21334;-79
2021/07/11 06:55:20;;;;;;;10.82;4.95;;;;;;;30.28;42.87;99969.27;1764226;81;21354;-79
2021/07/11 06:58:26;;;;;;;7.83;4.90;;;;;;;30.33;41.96;99966.33;1762682;81;21355;-79
2021/07/11 07:01:31;;;;;;;10.35;4.80;;;;;;;30.38;41.31;99966.21;1763053;81;21335;-79
2021/07/11 07:04:35;;;;;;;7.33;4.65;;;;;;;30.47;42.60;99963.48;1764035;81;21185;-78
2021/07/11 07:07:41;;;;;;;9.18;4.67;;;;;;;30.55;41.02;99964.14;1764061;81;21296;-79
2021/07/11 07:10:46;;;;;;;11.38;4.50;;;;;;;30.60;41.33;99965.44;1763892;81;21300;-79
2021/07/11 07:13:52;;;;;;;6.70;4.20;;;;;;;30.58;40.53;99964.06;1764107;81;21300;-79
2021/07/11 07:16:58;;;;;;;9.63;4.47;;;;;;;30.51;40.42;99981.45;1763574;81;21850;-78
2021/07/11 07:20:04;;;;;;;6.05;4.00;;;;;;;30.48;39.56;99980.08;1762698;81;21296;-79
2021/07/11 07:23:09;;;;;;;10.63;4.37;;;;;;;30.55;40.19;99968.38;1762662;81;21970;-79
2021/07/11 07:26:14;;;;;;;9.58;4.05;;;;;;;30.63;40.42;99967.62;1764017;81;21830;-79
2021/07/11 07:29:20;;;;;;;6.17;4.25;;;;;;;30.77;41.28;99967.04;1762684;81;21739;-79
2021/07/11 07:32:25;;;;;;;7.40;4.70;;;;;;;30.95;40.94;99967.98;1762610;81;21362;-79
2021/07/11 07:35:31;;;;;;;11.80;4.75;;;;;;;31.09;40.84;99969.92;1764786;81;21253;-79
2021/07/11 07:38:36;;;;;;;8.43;3.95;;;;;;;31.16;39.75;99968.91;1764131;81;21903;-79
2021/07/11 07:41:42;;;;;;;11.45;4.85;;;;;;;31.15;39.92;99968.63;1781406;80;21925;-79
2021/07/11 07:44:49;;;;;;;11.35;4.25;;;;;;;31.15;39.32;99978.51;1782448;80;21338;-79
2021/07/11 07:47:54;;;;;;;7.90;5.05;;;;;;;31.14;39.65;99977.67;1781767;80;21330;-79
2021/07/11 07:51:01;;;;;;;9.40;5.10;;;;;;;31.14;39.72;99975.44;1779949;80;21181;-79
2021/07/11 07:54:06;;;;;;;7.37;4.58;;;;;;;31.13;40.18;99973.19;1781584;80;21287;-79
2021/07/11 07:57:15;;;;;;;5.47;3.90;;;;;;;31.07;39.75;99972.24;1780046;80;21251;-79
2021/07/11 08:00:21;;;;;;;5.33;4.28;;;;;;;31.01;40.85;99973.78;1781607;80;21295;-79
2021/07/11 08:03:27;;;;;;;6.28;4.80;;;;;;;31.03;40.61;99972.88;1779985;80;21207;-79
2021/07/11 08:06:34;;;;;;;13.45;4.72;;;;;;;31.10;40.56;99973.86;1781573;80;21243;-79
2021/07/11 08:09:39;;;;;;;9.15;4.97;;;;;;;31.14;40.63;99972.03;1781581;80;21913;-79
2021/07/11 08:12:45;;;;;;;9.10;4.83;;;;;;;31.17;39.60;99971.39;1780318;80;21370;-79
2021/07/11 08:15:50;;;;;;;6.00;4.50;;;;;;;31.17;41.21;99975.63;1781492;80;21830;-79
2021/07/11 08:18:57;;;;;;;10.98;4.55;;;;;;;31.21;39.44;99974.42;1779970;80;21719;-79
2021/07/11 08:22:02;;;;;;;8.63;4.83;;;;;;;31.15;40.29;99968.08;1781228;80;21381;-79
2021/07/11 08:25:08;;;;;;;13.85;4.60;;;;;;;31.19;39.45;99970.48;1781484;80;21184;-79
2021/07/11 08:28:14;;;;;;;11.25;5.03;;;;;;;31.25;39.48;99964.15;1781527;80;21906;-79
2021/07/11 08:31:20;;;;;;;10.68;5.10;;;;;;;31.27;38.19;99968.91;1781459;80;21826;-79
2021/07/11 08:34:26;;;;;;;16.52;5.15;;;;;;;31.22;38.58;99959.96;1781589;80;21303;-79
2021/07/11 08:37:32;;;;;;;11.05;5.45;;;;;;;31.18;38.02;99965.16;1781558;80;21311;-79
2021/07/11 08:40:41;;;;;;;9.98;4.87;;;;;;;31.21;37.87;99961.13;1776700;80;21322;-79
2021/07/11 08:43:47;;;;;;;10.70;5.17;;;;;;;31.26;37.32;99964.39;1770602;81;21371;-79
2021/07/11 08:46:52;;;;;;;9.23;4.67;;;;;;;31.26;37.32;99964.39;1773715;81;21189;-79
2021/07/11 08:49:57;;;;;;;6.05;4.30;;;;;;;31.25;36.79;99966.97;1769700;81;21290;-79
2021/07/11 08:53:03;;;;;;;13.58;4.55;;;;;;;31.30;37.27;99959.22;1769635;81;21303;-78
2021/07/11 08:56:08;;;;;;;7.58;4.50;;;;;;;31.38;38.34;99960.41;1771304;81;21188;-79
2021/07/11 08:59:15;;;;;;;9.15;4.80;;;;;;;31.43;38.01;99949.55;1771484;81;21295;-79
2021/07/11 09:02:20;;;;;;;12.33;4.65;;;;;;;31.48;37.75;99961.58;1770903;81;21808;-79
2021/07/11 09:05:32;;;;;;;8.60;4.33;;;;;;;31.44;37.53;99952.66;1769684;81;21343;-79
2021/07/11 09:08:37;;;;;;;9.78;4.53;;;;;;;31.44;38.77;99951.24;1771242;81;21307;-78
2021/07/11 09:12:03;;;;;;;12.15;4.72;;;;;;;31.43;36.29;99962.27;1734714;81;21267;-79
2021/07/11 09:15:06;;;;;;;7.92;4.80;;;;;;;31.40;36.30;99951.63;1770338;81;21303;-79
2021/07/11 09:18:11;;;;;;;11.83;5.12;;;;;;;31.35;36.60;99955.42;1770508;81;21216;-79
2021/07/11 09:21:17;;;;;;;11.43;4.72;;;;;;;31.33;36.21;99952.66;1771089;81;21216;-79
2021/07/11 09:24:23;;;;;;;6.95;4.22;;;;;;;31.31;36.27;99945.92;1769689;81;21330;-77
2021/07/11 09:27:31;;;;;;;5.90;4.10;;;;;;;31.34;35.75;99948.12;1771055;81;21886;-77
2021/07/11 09:30:36;;;;;;;8.08;4.30;;;;;;;31.37;36.95;99939.55;1772091;81;21256;-77
2021/07/11 09:33:41;;;;;;;14.35;5.20;;;;;;;31.37;37.16;99938.14;1770612;81;21284;-78
2021/07/11 09:36:46;;;;;;;6.70;3.98;;;;;;;31.42;38.07;99940.24;1771429;81;21180;-79
2021/07/11 09:40:04;;;;;;;10.10;4.67;;;;;;;31.53;37.23;99940.23;1771302;81;21189;-78
2021/07/11 09:43:09;;;;;;;9.60;4.58;;;;;;;31.62;35.95;99943.11;1775352;80;21885;-79
2021/07/11 09:46:23;;;;;;;11.48;4.58;;;;;;;31.66;35.89;99945.51;1777875;80;21196;-79
2021/07/11 09:49:29;;;;;;;7.22;4.50;;;;;;;31.66;35.46;99925.72;1778834;80;21219;-79
2021/07/11 09:52:35;;;;;;;10.88;4.40;;;;;;;31.68;34.83;99937.55;1777890;80;22009;-79
2021/07/11 09:55:41;;;;;;;9.23;4.17;;;;;;;31.68;34.61;99930.48;1779238;80;21295;-79
2021/07/11 09:58:47;;;;;;;9.68;4.40;;;;;;;31.68;34.51;99940.37;1779618;80;21308;-79
2021/07/11 10:01:54;;;;;;;8.80;3.87;;;;;;;31.68;34.89;99944.62;1777905;80;21315;-79
2021/07/11 10:04:59;;;;;;;6.80;4.20;;;;;;;31.75;35.82;99937.90;1777726;80;21259;-79
2021/07/11 10:08:04;;;;;;;5.70;4.28;;;;;;;31.88;34.69;99940.98;1777762;80;21242;-79
2021/07/11 10:11:10;;;;;;;8.80;4.17;;;;;;;31.93;34.23;99947.90;1779182;80;21274;-79
2021/07/11 10:14:16;;;;;;;10.05;4.10;;;;;;;31.98;34.21;99946.33;1778512;80;21228;-79
2021/07/11 10:17:23;;;;;;;11.38;3.62;;;;;;;31.99;33.68;99942.34;1777816;80;21191;-79
2021/07/11 10:20:31;;;;;;;12.68;4.00;;;;;;;31.98;34.01;99935.84;1779198;80;21196;-79
2021/07/11 10:23:44;;;;;;;4.65;3.58;;;;;;;32.00;33.50;99943.45;1779059;80;21335;-79
2021/07/11 10:26:50;;;;;;;7.37;3.80;;;;;;;32.02;34.68;99938.86;1780177;80;21695;-79
2021/07/11 10:29:56;;;;;;;6.67;4.05;;;;;;;32.05;33.12;99931.14;1779187;80;21339;-79
2021/07/11 10:33:04;;;;;;;8.50;4.28;;;;;;;32.09;34.73;99922.25;1779306;80;21295;-79
2021/07/11 10:36:16;;;;;;;11.55;3.80;;;;;;;32.13;34.17;99932.30;1777926;80;21329;-79
2021/07/11 10:39:19;;;;;;;7.08;3.62;;;;;;;32.14;33.88;99927.75;1779524;80;21306;-79
2021/07/11 10:42:33;;;;;;;5.53;3.58;;;;;;;32.15;32.04;99932.83;1776408;80;21283;-79
2021/07/11 10:45:39;;;;;;;7.30;3.35;;;;;;;32.13;31.26;99930.31;1777732;80;21378;-79
2021/07/11 10:48:44;;;;;;;6.47;4.12;;;;;;;32.13;31.21;99920.99;1780137;80;21307;-79
2021/07/11 10:51:58;;;;;;;5.80;3.50;;;;;;;32.16;32.03;99924.59;1779367;80;21309;-79
2021/07/11 10:55:00;;;;;;;5.90;3.50;;;;;;;32.08;30.99;99916.32;1778517;80;21771;-79
2021/07/11 10:58:03;;;;;;;;;;;;;;;31.94;30.30;99916.45;1782080;80;21176;-79
2021/07/11 11:01:10;;;;;;;5.83;3.37;;;;;;;31.93;31.78;99911.14;1779350;80;20266;-79
2021/07/11 11:04:21;;;;;;;7.72;3.52;;;;;;;31.99;34.29;99929.02;1780310;80;21295;-79
2021/07/11 11:07:27;;;;;;;7.53;3.15;;;;;;;32.03;31.61;99917.89;1777874;80;21301;-79
2021/07/11 11:10:40;;;;;;;8.50;3.37;;;;;;;32.01;31.07;99913.16;1780294;80;21814;-78
2021/07/11 11:13:45;;;;;;;10.30;3.40;;;;;;;32.02;32.64;99911.99;1779446;80;21491;-79
2021/07/11 11:16:51;;;;;;;4.67;3.40;;;;;;;32.03;32.74;99918.72;1779439;80;21192;-79
2021/07/11 11:19:57;;;;;;;8.33;3.70;;;;;;;32.04;32.68;99919.55;1778976;80;21878;-79
2021/07/11 11:23:03;;;;;;;4.65;3.75;;;;;;;32.03;32.46;99911.66;1779351;80;21164;-79
2021/07/11 11:26:08;;;;;;;7.10;3.87;;;;;;;32.05;32.49;99910.77;1777825;80;21326;-79
2021/07/11 11:29:15;;;;;;;6.62;3.98;;;;;;;32.11;33.06;99911.43;1777886;80;21723;-79
2021/07/11 11:32:22;;;;;;;12.47;4.00;;;;;;;32.11;33.44;99910.60;1779403;80;21291;-79
2021/07/11 11:35:23;;;;;;;6.70;3.98;;;;;;;32.13;31.52;99910.51;1777872;80;21318;-79
2021/07/11 11:38:16;;;;;;;5.25;2.90;;;;;;;32.15;32.80;99898.30;1779437;80;21231;-79
2021/07/11 11:41:05;;;;;;;6.12;3.25;;;;;;;32.20;32.32;99905.80;1779387;80;21307;-79
2021/07/11 11:44:24;;;;;;;7.72;3.58;;;;;;;32.21;32.13;99904.03;1751051;80;21204;-79
2021/07/11 11:47:29;;;;;;;5.62;3.27;;;;;;;32.22;31.54;99904.28;1771453;81;21350;-79
2021/07/11 11:50:34;;;;;;;6.15;3.17;;;;;;;32.22;31.53;99895.80;1770690;81;21260;-79
2021/07/11 11:53:50;;;;;;;8.00;3.58;;;;;;;32.23;31.81;99891.83;1772163;81;21303;-79
2021/07/11 11:56:55;;;;;;;4.42;3.22;;;;;;;32.28;30.83;99886.59;1771438;81;21735;-79
2021/07/11 12:00:01;;;;;;;10.13;4.00;;;;;;;32.26;30.64;99881.24;1771074;81;21704;-79
2021/07/11 12:03:09;;;;;;;6.22;3.10;;;;;;;32.30;31.66;99889.32;1771116;81;21291;-79
2021/07/11 12:06:17;;;;;;;18.17;3.62;;;;;;;32.36;31.79;99877.25;1771354;81;21228;-79
2021/07/11 12:09:24;;;;;;;3.87;3.17;;;;;;;32.34;31.41;99875.94;1771165;81;21319;-79
2021/07/11 12:12:30;;;;;;;4.83;3.30;;;;;;;32.28;32.00;99875.27;1769711;81;21855;-79
2021/07/11 12:15:37;;;;;;;10.63;3.35;;;;;;;32.23;31.81;99872.02;1769727;81;21260;-79
2021/07/11 12:19:00;;;;;;;5.35;3.60;;;;;;;32.23;30.11;99870.61;1769948;81;21696;-79
2021/07/11 12:22:05;;;;;;;10.38;3.35;;;;;;;32.24;30.93;99868.02;1769939;81;21196;-79
2021/07/11 12:28:19;;;;;;;7.20;3.58;;;;;;;32.29;31.41;99874.93;1771324;81;21298;-79
2021/07/11 12:31:32;;;;;;;8.75;3.45;;;;;;;32.24;30.98;99875.68;1771026;81;22319;-79
2021/07/11 12:34:39;;;;;;;5.78;3.10;;;;;;;32.19;30.60;99863.11;1771100;81;21224;-79
2021/07/11 12:37:45;;;;;;;4.53;3.05;;;;;;;32.18;31.14;99863.66;1771932;81;21298;-79
2021/07/11 12:40:49;;;;;;;5.47;2.98;;;;;;;32.16;32.12;99858.94;1772193;81;21644;-79
2021/07/11 12:44:04;;;;;;;12.60;3.50;;;;;;;32.17;31.79;99861.18;1772132;81;21276;-79
2021/07/11 12:47:17;;;;;;;5.28;3.50;;;;;;;32.11;32.17;99858.27;1772136;81;21295;-79
2021/07/11 12:50:22;;;;;;;4.03;2.80;;;;;;;32.13;31.79;99859.59;1769669;81;21303;-79
2021/07/11 12:53:28;;;;;;;6.42;3.17;;;;;;;32.12;33.20;99857.92;1769651;81;21184;-79
2021/07/11 12:56:35;;;;;;;12.53;3.52;;;;;;;32.10;31.75;99856.03;1769730;81;21307;-78
2021/07/11 12:59:43;;;;;;;7.30;3.15;;;;;;;32.07;31.60;99848.19;1771472;81;21311;-79
2021/07/11 13:02:48;;;;;;;8.50;3.35;;;;;;;32.04;31.45;99844.59;1771076;81;21327;-79
2021/07/11 13:05:54;;;;;;;3.27;2.98;;;;;;;32.03;32.34;99850.84;1754095;81;21326;-79
2021/07/11 13:09:00;;;;;;;6.87;3.65;;;;;;;32.02;32.20;99846.94;1735671;81;21735;-79
2021/07/11 13:12:06;;;;;;;4.35;2.72;;;;;;;31.98;31.99;99842.52;1769676;81;21260;-79
2021/07/11 13:15:17;;;;;;;4.70;3.17;;;;;;;31.95;32.42;99848.86;1769646;81;21176;-79
2021/07/11 13:18:23;;;;;;;5.08;3.30;;;;;;;31.94;33.13;99854.82;1769574;81;21196;-79
2021/07/11 13:21:29;;;;;;;6.22;3.27;;;;;;;31.93;32.02;99848.92;1769505;81;21244;-79
2021/07/11 13:24:34;;;;;;;5.53;3.83;;;;;;;31.88;32.15;99846.25;1771140;81;21220;-78
2021/07/11 13:27:40;;;;;;;3.22;2.85;;;;;;;31.84;31.74;99840.41;1769946;81;21334;-79
2021/07/11 13:30:45;;;;;;;5.78;3.40;;;;;;;31.79;31.68;99834.30;1771071;81;21878;-79
2021/07/11 13:33:51;;;;;;;10.50;3.52;;;;;;;31.76;31.31;99842.60;1771076;81;21231;-79
2021/07/11 13:36:57;;;;;;;4.47;3.12;;;;;;;31.72;32.02;99837.38;1769574;81;21331;-79
2021/07/11 13:40:03;;;;;;;7.25;3.15;;;;;;;31.72;32.25;99836.80;1769677;81;21197;-79
2021/07/11 13:43:10;;;;;;;6.47;3.40;;;;;;;31.74;32.20;99830.22;1769555;81;21189;-79
2021/07/11 13:46:15;;;;;;;8.78;3.62;;;;;;;31.75;32.44;99831.88;1769594;81;21342;-79
2021/07/11 13:49:22;;;;;;;9.93;3.00;;;;;;;31.76;31.83;99833.57;1771029;81;21303;-79
2021/07/11 13:52:27;;;;;;;5.12;3.10;;;;;;;31.75;31.94;99830.47;1770731;81;21375;-79
2021/07/11 13:55:35;;;;;;;5.72;3.50;;;;;;;31.77;32.61;99829.58;1770893;81;21358;-79
2021/07/11 13:58:41;;;;;;;9.38;3.40;;;;;;;31.78;33.36;99831.23;1771051;81;21827;-79
2021/07/11 14:01:45;;;;;;;11.28;3.55;;;;;;;31.77;33.02;99826.75;1769650;81;21299;-79
2021/07/11 14:04:52;;;;;;;8.90;3.37;;;;;;;31.76;32.96;99834.13;1769623;81;21197;-79
2021/07/11 14:07:58;;;;;;;11.88;3.22;;;;;;;31.67;33.15;99831.30;1769597;81;21331;-79
2021/07/11 14:11:07;;;;;;;9.73;3.52;;;;;;;31.61;32.84;99822.70;1769657;81;21823;-79
2021/07/11 14:14:14;;;;;;;6.60;3.15;;;;;;;31.56;33.31;99823.69;1771188;81;21724;-79
2021/07/11 14:17:19;;;;;;;12.20;3.42;;;;;;;31.54;33.11;99830.84;1769711;81;21291;-79
2021/07/11 14:20:25;;;;;;;5.03;3.30;;;;;;;31.50;32.67;99818.52;1769669;81;21189;-78
2021/07/11 14:23:31;;;;;;;7.95;2.95;;;;;;;31.45;32.68;99821.50;1769974;81;21204;-79
2021/07/11 14:26:38;;;;;;;10.95;3.05;;;;;;;31.43;32.44;99819.56;1770742;81;21173;-79
2021/07/11 14:29:43;;;;;;;5.47;3.22;;;;;;;31.42;33.24;99816.49;1772169;81;21276;-79
2021/07/11 14:32:49;;;;;;;7.35;3.30;;;;;;;31.41;33.56;99814.83;1771006;81;21169;-79
2021/07/11 14:35:56;;;;;;;3.90;2.90;;;;;;;31.41;33.42;99817.66;1771231;81;21232;-79